sensor_id;sensor_type;location;lat;lon;timestamp;pressure;altitude;pressure_sealevel;temperature;humidity
40992;BME280;29633;49.168;9.848;2023-03-01T00:01:29;97629.47;;;5.36;53.40
40992;BME280;29633;49.168;9.848;2023-03-01T00:03:56;97623.72;;;5.31;53.25
40992;BME280;29633;49.168;9.848;2023-03-01T00:06:22;97628.03;;;5.31;53.09
40992;BME280;29633;49.168;9.848;2023-03-01T00:08:48;97620.38;;;5.29;53.36
40992;BME280;29633;49.168;9.848;2023-03-01T00:11:24;97617.94;;;5.26;53.25
40992;BME280;29633;49.168;9.848;2023-03-01T00:13:52;97618.91;;;5.24;53.19
40992;BME280;29633;49.168;9.848;2023-03-01T00:16:39;97624.22;;;5.21;53.19
40992;BME280;29633;49.168;9.848;2023-03-01T00:19:06;97619.97;;;5.20;53.36
40992;BME280;29633;49.168;9.848;2023-03-01T00:21:32;97623.50;;;5.17;53.32
40992;BME280;29633;49.168;9.848;2023-03-01T00:23:57;97624.47;;;5.15;53.45
40992;BME280;29633;49.168;9.848;2023-03-01T00:26:25;97621.97;;;5.13;53.22
40992;BME280;29633;49.168;9.848;2023-03-01T00:28:51;97622.78;;;5.14;53.38
40992;BME280;29633;49.168;9.848;2023-03-01T00:31:20;97622.03;;;5.12;53.43
40992;BME280;29633;49.168;9.848;2023-03-01T00:33:48;97621.28;;;5.10;53.17
40992;BME280;29633;49.168;9.848;2023-03-01T00:36:14;97634.13;;;5.10;53.16
40992;BME280;29633;49.168;9.848;2023-03-01T00:38:44;97626.44;;;5.10;53.38
40992;BME280;29633;49.168;9.848;2023-03-01T00:41:13;97632.50;;;5.07;53.23
40992;BME280;29633;49.168;9.848;2023-03-01T00:43:39;97633.50;;;5.05;53.45
40992;BME280;29633;49.168;9.848;2023-03-01T00:46:11;97630.03;;;5.06;53.30
40992;BME280;29633;49.168;9.848;2023-03-01T00:48:39;97632.75;;;5.03;53.31
40992;BME280;29633;49.168;9.848;2023-03-01T00:51:06;97635.31;;;5.03;53.16
40992;BME280;29633;49.168;9.848;2023-03-01T00:53:32;97642.25;;;5.01;53.34
40992;BME280;29633;49.168;9.848;2023-03-01T00:55:58;97636.25;;;5.00;53.49
40992;BME280;29633;49.168;9.848;2023-03-01T00:58:24;97626.97;;;4.97;53.34
40992;BME280;29633;49.168;9.848;2023-03-01T01:00:49;97626.97;;;4.97;53.48
40992;BME280;29633;49.168;9.848;2023-03-01T01:03:15;97633.91;;;4.95;53.52
40992;BME280;29633;49.168;9.848;2023-03-01T01:05:41;97629.66;;;4.94;53.63
40992;BME280;29633;49.168;9.848;2023-03-01T01:08:06;97631.47;;;4.92;53.38
40992;BME280;29633;49.168;9.848;2023-03-01T01:10:34;97632.25;;;4.94;53.32
40992;BME280;29633;49.168;9.848;2023-03-01T01:12:59;97620.44;;;4.90;53.53
40992;BME280;29633;49.168;9.848;2023-03-01T01:15:26;97619.59;;;4.90;53.50
40992;BME280;29633;49.168;9.848;2023-03-01T01:17:54;97609.38;;;4.88;53.41
40992;BME280;29633;49.168;9.848;2023-03-01T01:20:20;97610.34;;;4.86;53.62
40992;BME280;29633;49.168;9.848;2023-03-01T01:22:46;97614.66;;;4.85;53.33
40992;BME280;29633;49.168;9.848;2023-03-01T01:25:11;97606.94;;;4.85;53.42
40992;BME280;29633;49.168;9.848;2023-03-01T01:27:37;97607.78;;;4.86;53.65
40992;BME280;29633;49.168;9.848;2023-03-01T01:30:03;97603.47;;;4.86;53.44
40992;BME280;29633;49.168;9.848;2023-03-01T01:32:29;97598.41;;;4.85;53.58
40992;BME280;29633;49.168;9.848;2023-03-01T01:34:55;97593.41;;;4.82;53.58
40992;BME280;29633;49.168;9.848;2023-03-01T01:37:21;97588.25;;;4.82;53.59
40992;BME280;29633;49.168;9.848;2023-03-01T01:39:46;97585.00;;;4.78;53.76
40992;BME280;29633;49.168;9.848;2023-03-01T01:42:16;97582.44;;;4.78;53.65
40992;BME280;29633;49.168;9.848;2023-03-01T01:44:45;97579.03;;;4.78;53.56
40992;BME280;29633;49.168;9.848;2023-03-01T01:47:17;97574.03;;;4.75;53.64
40992;BME280;29633;49.168;9.848;2023-03-01T01:49:48;97569.72;;;4.75;53.55
40992;BME280;29633;49.168;9.848;2023-03-01T01:52:27;97566.41;;;4.73;53.54
40992;BME280;29633;49.168;9.848;2023-03-01T01:55:11;97560.63;;;4.68;53.74
40992;BME280;29633;49.168;9.848;2023-03-01T01:57:51;97562.44;;;4.66;53.63
40992;BME280;29633;49.168;9.848;2023-03-01T02:00:22;97550.63;;;4.62;53.72
40992;BME280;29633;49.168;9.848;2023-03-01T02:02:50;97555.00;;;4.60;53.75
40992;BME280;29633;49.168;9.848;2023-03-01T02:08:02;97545.69;;;4.58;53.60
40992;BME280;29633;49.168;9.848;2023-03-01T02:10:28;97546.53;;;4.58;53.65
40992;BME280;29633;49.168;9.848;2023-03-01T02:12:54;97538.06;;;4.56;53.86
40992;BME280;29633;49.168;9.848;2023-03-01T02:15:22;97539.94;;;4.53;53.79
40992;BME280;29633;49.168;9.848;2023-03-01T02:17:48;97538.34;;;4.50;53.98
40992;BME280;29633;49.168;9.848;2023-03-01T02:21:00;97536.66;;;4.49;53.76
40992;BME280;29633;49.168;9.848;2023-03-01T02:23:05;97532.44;;;4.48;53.94
40992;BME280;29633;49.168;9.848;2023-03-01T02:25:44;97527.31;;;4.48;53.86
40992;BME280;29633;49.168;9.848;2023-03-01T02:30:41;97523.06;;;4.47;53.49
40992;BME280;29633;49.168;9.848;2023-03-01T02:33:28;97527.38;;;4.46;53.75
40992;BME280;29633;49.168;9.848;2023-03-01T02:35:59;97524.75;;;4.48;53.69
40992;BME280;29633;49.168;9.848;2023-03-01T02:38:25;97512.84;;;4.45;53.65
40992;BME280;29633;49.168;9.848;2023-03-01T02:40:52;97512.84;;;4.45;53.95
40992;BME280;29633;49.168;9.848;2023-03-01T02:43:19;97513.84;;;4.43;53.61
40992;BME280;29633;49.168;9.848;2023-03-01T02:45:50;97507.03;;;4.42;53.64
40992;BME280;29633;49.168;9.848;2023-03-01T02:48:17;97507.88;;;4.42;53.90
40992;BME280;29633;49.168;9.848;2023-03-01T02:51:07;97503.63;;;4.41;53.83
40992;BME280;29633;49.168;9.848;2023-03-01T02:56:23;97510.56;;;4.39;53.78
40992;BME280;29633;49.168;9.848;2023-03-01T02:58:49;97501.19;;;4.38;53.89
40992;BME280;29633;49.168;9.848;2023-03-01T03:01:20;97504.75;;;4.36;53.82
40992;BME280;29633;49.168;9.848;2023-03-01T03:03:46;97501.41;;;4.34;53.78
40992;BME280;29633;49.168;9.848;2023-03-01T03:06:12;97497.09;;;4.34;53.65
40992;BME280;29633;49.168;9.848;2023-03-01T03:08:38;97505.63;;;4.35;53.60
40992;BME280;29633;49.168;9.848;2023-03-01T03:11:03;97506.59;;;4.32;54.22
40992;BME280;29633;49.168;9.848;2023-03-01T03:13:29;97502.38;;;4.31;54.01
40992;BME280;29633;49.168;9.848;2023-03-01T03:15:56;97504.88;;;4.33;53.85
40992;BME280;29633;49.168;9.848;2023-03-01T03:18:23;97492.94;;;4.32;54.02
40992;BME280;29633;49.168;9.848;2023-03-01T03:20:51;97486.13;;;4.31;53.90
40992;BME280;29633;49.168;9.848;2023-03-01T03:23:21;97482.75;;;4.30;53.73
40992;BME280;29633;49.168;9.848;2023-03-01T03:25:50;97485.31;;;4.30;54.08
40992;BME280;29633;49.168;9.848;2023-03-01T03:28:16;97477.69;;;4.29;53.72
40992;BME280;29633;49.168;9.848;2023-03-01T03:30:42;97479.34;;;4.30;53.87
40992;BME280;29633;49.168;9.848;2023-03-01T03:33:10;97474.28;;;4.28;53.83
40992;BME280;29633;49.168;9.848;2023-03-01T03:35:44;97468.31;;;4.28;54.08
40992;BME280;29633;49.168;9.848;2023-03-01T03:38:12;97469.19;;;4.27;54.00
40992;BME280;29633;49.168;9.848;2023-03-01T03:40:49;97466.63;;;4.27;53.92
40992;BME280;29633;49.168;9.848;2023-03-01T03:43:20;97467.56;;;4.26;54.24
40992;BME280;29633;49.168;9.848;2023-03-01T03:45:47;97463.47;;;4.22;54.18
40992;BME280;29633;49.168;9.848;2023-03-01T03:48:13;97460.09;;;4.20;54.01
40992;BME280;29633;49.168;9.848;2023-03-01T03:50:40;97463.50;;;4.20;54.12
40992;BME280;29633;49.168;9.848;2023-03-01T03:53:09;97466.16;;;4.19;54.01
40992;BME280;29633;49.168;9.848;2023-03-01T03:55:35;97461.88;;;4.19;54.24
40992;BME280;29633;49.168;9.848;2023-03-01T03:58:06;97457.69;;;4.17;53.88
40992;BME280;29633;49.168;9.848;2023-03-01T04:00:40;97461.97;;;4.16;54.22
40992;BME280;29633;49.168;9.848;2023-03-01T04:03:07;97464.53;;;4.16;54.52
40992;BME280;29633;49.168;9.848;2023-03-01T04:05:33;97455.25;;;4.14;54.06
40992;BME280;29633;49.168;9.848;2023-03-01T04:07:59;97456.16;;;4.13;54.01
40992;BME280;29633;49.168;9.848;2023-03-01T04:10:33;97457.06;;;4.12;54.43
40992;BME280;29633;49.168;9.848;2023-03-01T04:13:01;97455.44;;;4.09;54.05
40992;BME280;29633;49.168;9.848;2023-03-01T04:15:27;97464.13;;;4.07;54.28
40992;BME280;29633;49.168;9.848;2023-03-01T04:17:53;97456.44;;;4.07;53.87
40992;BME280;29633;49.168;9.848;2023-03-01T04:20:22;97454.75;;;4.06;54.27
40992;BME280;29633;49.168;9.848;2023-03-01T04:25:23;97460.66;;;4.08;54.22
40992;BME280;29633;49.168;9.848;2023-03-01T04:27:48;97454.66;;;4.09;54.04
40992;BME280;29633;49.168;9.848;2023-03-01T04:30:14;97453.81;;;4.08;54.11
40992;BME280;29633;49.168;9.848;2023-03-01T04:32:40;97455.53;;;4.08;54.36
40992;BME280;29633;49.168;9.848;2023-03-01T04:35:06;97456.38;;;4.08;53.95
40992;BME280;29633;49.168;9.848;2023-03-01T04:37:32;97458.25;;;4.05;54.15
40992;BME280;29633;49.168;9.848;2023-03-01T04:39:57;97454.06;;;4.02;54.29
40992;BME280;29633;49.168;9.848;2023-03-01T04:42:23;97454.06;;;4.02;54.26
40992;BME280;29633;49.168;9.848;2023-03-01T04:44:49;97454.97;;;4.01;54.22
40992;BME280;29633;49.168;9.848;2023-03-01T04:47:16;97453.34;;;3.98;54.31
40992;BME280;29633;49.168;9.848;2023-03-01T04:49:42;97453.34;;;3.98;54.31
40992;BME280;29633;49.168;9.848;2023-03-01T04:52:07;97456.84;;;3.97;54.35
40992;BME280;29633;49.168;9.848;2023-03-01T04:54:35;97465.44;;;3.96;54.39
40992;BME280;29633;49.168;9.848;2023-03-01T04:57:01;97466.25;;;3.97;54.23
40992;BME280;29633;49.168;9.848;2023-03-01T04:59:28;97463.75;;;3.95;54.42
40992;BME280;29633;49.168;9.848;2023-03-01T05:01:55;97463.75;;;3.95;54.05
40992;BME280;29633;49.168;9.848;2023-03-01T05:04:22;97469.78;;;3.94;54.06
40992;BME280;29633;49.168;9.848;2023-03-01T05:06:48;97468.97;;;3.94;54.32
40992;BME280;29633;49.168;9.848;2023-03-01T05:09:14;97466.50;;;3.91;54.33
40992;BME280;29633;49.168;9.848;2023-03-01T05:11:40;97468.19;;;3.92;54.23
40992;BME280;29633;49.168;9.848;2023-03-01T05:14:06;97463.94;;;3.91;54.30
40992;BME280;29633;49.168;9.848;2023-03-01T05:16:32;97467.47;;;3.88;54.36
40992;BME280;29633;49.168;9.848;2023-03-01T05:18:59;97460.75;;;3.86;54.24
40992;BME280;29633;49.168;9.848;2023-03-01T05:21:27;97454.78;;;3.85;54.27
40992;BME280;29633;49.168;9.848;2023-03-01T05:23:52;97463.31;;;3.86;54.25
40992;BME280;29633;49.168;9.848;2023-03-01T05:26:19;97456.53;;;3.85;54.32
40992;BME280;29633;49.168;9.848;2023-03-01T05:28:47;97449.78;;;3.82;54.32
40992;BME280;29633;49.168;9.848;2023-03-01T05:31:13;97449.78;;;3.82;54.22
40992;BME280;29633;49.168;9.848;2023-03-01T05:33:40;97448.25;;;3.78;54.45
40992;BME280;29633;49.168;9.848;2023-03-01T05:36:06;97452.56;;;3.78;54.25
40992;BME280;29633;49.168;9.848;2023-03-01T05:38:33;97453.31;;;3.80;54.12
40992;BME280;29633;49.168;9.848;2023-03-01T05:40:58;97459.28;;;3.80;54.25
40992;BME280;29633;49.168;9.848;2023-03-01T05:43:25;97448.19;;;3.80;54.33
40992;BME280;29633;49.168;9.848;2023-03-01T05:45:51;97448.25;;;3.78;54.63
40992;BME280;29633;49.168;9.848;2023-03-01T05:48:17;97454.34;;;3.76;54.37
40992;BME280;29633;49.168;9.848;2023-03-01T05:50:45;97446.72;;;3.74;54.58
40992;BME280;29633;49.168;9.848;2023-03-01T05:53:13;97446.72;;;3.74;54.35
40992;BME280;29633;49.168;9.848;2023-03-01T05:55:40;97449.28;;;3.74;54.78
40992;BME280;29633;49.168;9.848;2023-03-01T05:58:10;97451.78;;;3.76;54.21
40992;BME280;29633;49.168;9.848;2023-03-01T06:00:36;97443.97;;;3.79;54.26
40992;BME280;29633;49.168;9.848;2023-03-01T06:03:03;97439.59;;;3.81;54.47
40992;BME280;29633;49.168;9.848;2023-03-01T06:05:29;97443.78;;;3.83;54.31
40992;BME280;29633;49.168;9.848;2023-03-01T06:07:54;97440.28;;;3.84;54.38
40992;BME280;29633;49.168;9.848;2023-03-01T06:10:22;97443.69;;;3.85;54.36
40992;BME280;29633;49.168;9.848;2023-03-01T06:12:47;97441.97;;;3.85;54.17
40992;BME280;29633;49.168;9.848;2023-03-01T06:15:15;97443.78;;;3.83;54.15
40992;BME280;29633;49.168;9.848;2023-03-01T06:17:42;97441.97;;;3.85;54.49
40992;BME280;29633;49.168;9.848;2023-03-01T06:20:10;97441.06;;;3.86;54.10
40992;BME280;29633;49.168;9.848;2023-03-01T06:22:37;97441.84;;;3.88;54.39
40992;BME280;29633;49.168;9.848;2023-03-01T06:25:02;97441.78;;;3.90;54.28
40992;BME280;29633;49.168;9.848;2023-03-01T06:27:28;97433.94;;;3.93;54.12
40992;BME280;29633;49.168;9.848;2023-03-01T06:29:54;97434.66;;;3.96;54.06
40992;BME280;29633;49.168;9.848;2023-03-01T06:32:20;97437.13;;;3.98;54.13
40992;BME280;29633;49.168;9.848;2023-03-01T06:34:46;97442.19;;;4.00;54.12
40992;BME280;29633;49.168;9.848;2023-03-01T06:37:12;97433.66;;;3.99;54.27
40992;BME280;29633;49.168;9.848;2023-03-01T06:39:37;97436.09;;;4.02;54.27
40992;BME280;29633;49.168;9.848;2023-03-01T06:42:03;97446.16;;;4.07;54.33
40992;BME280;29633;49.168;9.848;2023-03-01T06:44:29;97439.09;;;4.12;54.33
40992;BME280;29633;49.168;9.848;2023-03-01T06:46:55;97439.09;;;4.12;54.19
40992;BME280;29633;49.168;9.848;2023-03-01T06:49:20;97435.38;;;4.19;54.13
40992;BME280;29633;49.168;9.848;2023-03-01T06:51:46;97437.00;;;4.20;54.15
40992;BME280;29633;49.168;9.848;2023-03-01T06:54:12;97441.94;;;4.24;54.42
40992;BME280;29633;49.168;9.848;2023-03-01T06:56:38;97445.31;;;4.26;54.17
40992;BME280;29633;49.168;9.848;2023-03-01T06:59:04;97438.28;;;4.30;54.33
40992;BME280;29633;49.168;9.848;2023-03-01T07:01:30;97442.31;;;4.35;54.21
40992;BME280;29633;49.168;9.848;2023-03-01T07:03:56;97439.41;;;4.43;54.27
40992;BME280;29633;49.168;9.848;2023-03-01T07:06:22;97439.09;;;4.49;54.45
40992;BME280;29633;49.168;9.848;2023-03-01T07:08:48;97432.03;;;4.54;54.17
40992;BME280;29633;49.168;9.848;2023-03-01T07:11:15;97433.41;;;4.61;54.05
40992;BME280;29633;49.168;9.848;2023-03-01T07:13:42;97433.91;;;4.69;54.39
40992;BME280;29633;49.168;9.848;2023-03-01T07:16:08;97429.38;;;4.74;54.19
40992;BME280;29633;49.168;9.848;2023-03-01T07:18:33;97426.44;;;4.82;54.28
40992;BME280;29633;49.168;9.848;2023-03-01T07:21:04;97429.56;;;4.88;54.41
40992;BME280;29633;49.168;9.848;2023-03-01T07:23:31;97427.56;;;4.95;54.27
40992;BME280;29633;49.168;9.848;2023-03-01T07:25:59;97426.25;;;5.04;54.42
40992;BME280;29633;49.168;9.848;2023-03-01T07:28:26;97424.16;;;5.12;54.08
40992;BME280;29633;49.168;9.848;2023-03-01T07:30:51;97424.63;;;5.20;54.07
40992;BME280;29633;49.168;9.848;2023-03-01T07:33:17;97419.97;;;5.28;54.04
40992;BME280;29633;49.168;9.848;2023-03-01T07:35:43;97416.19;;;5.35;54.30
40992;BME280;29633;49.168;9.848;2023-03-01T07:38:09;97415.88;;;5.41;54.24
40992;BME280;29633;49.168;9.848;2023-03-01T07:40:35;97407.84;;;5.47;54.33
40992;BME280;29633;49.168;9.848;2023-03-01T07:43:00;97401.47;;;5.54;54.16
40992;BME280;29633;49.168;9.848;2023-03-01T07:45:27;97413.78;;;5.65;54.17
40992;BME280;29633;49.168;9.848;2023-03-01T07:47:54;97410.09;;;5.70;54.34
40992;BME280;29633;49.168;9.848;2023-03-01T07:50:20;97405.41;;;5.78;54.14
40992;BME280;29633;49.168;9.848;2023-03-01T07:52:47;97402.31;;;5.89;54.49
40992;BME280;29633;49.168;9.848;2023-03-01T07:55:13;97411.28;;;5.98;54.48
40992;BME280;29633;49.168;9.848;2023-03-01T07:57:42;97408.06;;;6.10;54.25
40992;BME280;29633;49.168;9.848;2023-03-01T08:00:11;97392.97;;;6.19;54.27
40992;BME280;29633;49.168;9.848;2023-03-01T08:02:37;97395.97;;;6.27;54.31
40992;BME280;29633;49.168;9.848;2023-03-01T08:05:03;97395.41;;;6.38;54.22
40992;BME280;29633;49.168;9.848;2023-03-01T08:07:29;97396.56;;;6.48;54.41
40992;BME280;29633;49.168;9.848;2023-03-01T08:09:55;97386.59;;;6.58;54.26
40992;BME280;29633;49.168;9.848;2023-03-01T08:12:20;97386.75;;;6.70;54.20
40992;BME280;29633;49.168;9.848;2023-03-01T08:14:46;97384.66;;;6.77;54.21
40992;BME280;29633;49.168;9.848;2023-03-01T08:17:14;97394.38;;;6.87;54.39
40992;BME280;29633;49.168;9.848;2023-03-01T08:19:40;97384.72;;;6.91;54.38
40992;BME280;29633;49.168;9.848;2023-03-01T08:22:05;97379.91;;;7.01;54.32
40992;BME280;29633;49.168;9.848;2023-03-01T08:24:31;97388.69;;;7.12;54.54
40992;BME280;29633;49.168;9.848;2023-03-01T08:26:57;97379.59;;;7.21;54.41
40992;BME280;29633;49.168;9.848;2023-03-01T08:29:23;97383.28;;;7.31;54.29
40992;BME280;29633;49.168;9.848;2023-03-01T08:31:50;97383.50;;;7.42;54.35
40992;BME280;29633;49.168;9.848;2023-03-01T08:34:17;97382.06;;;7.52;54.39
40992;BME280;29633;49.168;9.848;2023-03-01T08:36:44;97379.66;;;7.63;54.33
40992;BME280;29633;49.168;9.848;2023-03-01T08:39:12;97384.31;;;7.72;54.36
40992;BME280;29633;49.168;9.848;2023-03-01T08:41:39;97385.22;;;7.85;54.28
40992;BME280;29633;49.168;9.848;2023-03-01T08:44:05;97385.78;;;8.05;54.27
40992;BME280;29633;49.168;9.848;2023-03-01T08:46:34;97375.44;;;8.19;54.17
40992;BME280;29633;49.168;9.848;2023-03-01T08:49:07;97380.53;;;8.34;54.04
40992;BME280;29633;49.168;9.848;2023-03-01T08:51:34;97377.28;;;8.72;54.06
40992;BME280;29633;49.168;9.848;2023-03-01T08:54:13;97367.75;;;10.52;51.84
40992;BME280;29633;49.168;9.848;2023-03-01T08:56:40;97359.41;;;11.77;50.22
40992;BME280;29633;49.168;9.848;2023-03-01T08:59:06;97359.28;;;12.34;49.95
40992;BME280;29633;49.168;9.848;2023-03-01T09:01:32;97350.03;;;13.38;48.68
40992;BME280;29633;49.168;9.848;2023-03-01T09:03:57;97346.06;;;13.64;49.08
40992;BME280;29633;49.168;9.848;2023-03-01T09:06:23;97335.81;;;14.63;48.38
40992;BME280;29633;49.168;9.848;2023-03-01T09:08:49;97326.22;;;16.06;47.03
40992;BME280;29633;49.168;9.848;2023-03-01T09:11:18;97319.53;;;17.29;46.06
40992;BME280;29633;49.168;9.848;2023-03-01T09:13:44;97318.53;;;17.83;46.03
40992;BME280;29633;49.168;9.848;2023-03-01T09:16:11;97319.63;;;18.40;45.85
40992;BME280;29633;49.168;9.848;2023-03-01T09:18:38;97319.09;;;18.79;46.02
40992;BME280;29633;49.168;9.848;2023-03-01T09:21:08;97314.50;;;18.89;47.00
40992;BME280;29633;49.168;9.848;2023-03-01T09:23:41;97310.56;;;18.85;47.48
40992;BME280;29633;49.168;9.848;2023-03-01T09:26:10;97314.50;;;18.89;47.95
40992;BME280;29633;49.168;9.848;2023-03-01T09:28:37;97310.44;;;19.10;47.94
40992;BME280;29633;49.168;9.848;2023-03-01T09:31:03;97305.69;;;19.14;48.13
40992;BME280;29633;49.168;9.848;2023-03-01T09:33:30;97302.06;;;19.07;48.61
40992;BME280;29633;49.168;9.848;2023-03-01T09:36:04;97298.78;;;19.21;48.67
40992;BME280;29633;49.168;9.848;2023-03-01T09:38:30;97300.44;;;19.54;48.40
40992;BME280;29633;49.168;9.848;2023-03-01T09:40:56;97301.00;;;19.97;48.01
40992;BME280;29633;49.168;9.848;2023-03-01T09:43:30;97299.09;;;20.38;47.69
40992;BME280;29633;49.168;9.848;2023-03-01T09:45:59;97292.16;;;20.76;46.82
40992;BME280;29633;49.168;9.848;2023-03-01T09:48:29;97295.91;;;20.81;46.46
40992;BME280;29633;49.168;9.848;2023-03-01T09:50:59;97297.75;;;20.50;46.95
40992;BME280;29633;49.168;9.848;2023-03-01T09:53:32;97284.88;;;20.08;47.17
40992;BME280;29633;49.168;9.848;2023-03-01T09:56:20;97299.47;;;19.55;47.44
40992;BME280;29633;49.168;9.848;2023-03-01T10:04:45;97278.81;;;18.12;48.71
40992;BME280;29633;49.168;9.848;2023-03-01T10:09:52;97287.59;;;17.51;49.42
40992;BME280;29633;49.168;9.848;2023-03-01T10:12:22;97282.34;;;17.26;49.74
40992;BME280;29633;49.168;9.848;2023-03-01T10:15:19;97280.28;;;16.94;49.95
40992;BME280;29633;49.168;9.848;2023-03-01T10:17:56;97268.75;;;16.69;50.15
40992;BME280;29633;49.168;9.848;2023-03-01T10:20:25;97276.16;;;16.46;50.18
40992;BME280;29633;49.168;9.848;2023-03-01T10:22:52;97278.22;;;16.25;50.38
40992;BME280;29633;49.168;9.848;2023-03-01T10:28:39;97280.19;;;15.86;50.77
40992;BME280;29633;49.168;9.848;2023-03-01T10:31:12;97279.16;;;15.69;50.81
40992;BME280;29633;49.168;9.848;2023-03-01T10:33:38;97274.09;;;15.58;50.97
40992;BME280;29633;49.168;9.848;2023-03-01T10:36:08;97262.97;;;15.47;51.13
40992;BME280;29633;49.168;9.848;2023-03-01T10:38:55;97270.41;;;15.32;51.25
40992;BME280;29633;49.168;9.848;2023-03-01T10:41:23;97264.78;;;15.27;51.27
40992;BME280;29633;49.168;9.848;2023-03-01T10:43:56;97263.41;;;15.23;51.21
40992;BME280;29633;49.168;9.848;2023-03-01T10:46:30;97262.47;;;15.14;51.43
40992;BME280;29633;49.168;9.848;2023-03-01T10:51:32;97248.19;;;14.99;51.58
40992;BME280;29633;49.168;9.848;2023-03-01T10:53:57;97248.19;;;14.99;51.71
40992;BME280;29633;49.168;9.848;2023-03-01T10:56:23;97245.72;;;14.98;51.60
40992;BME280;29633;49.168;9.848;2023-03-01T10:59:03;97247.66;;;14.96;51.57
40992;BME280;29633;49.168;9.848;2023-03-01T11:04:17;97239.25;;;14.92;51.72
40992;BME280;29633;49.168;9.848;2023-03-01T11:06:43;97236.53;;;14.94;51.63
40992;BME280;29633;49.168;9.848;2023-03-01T11:09:20;97224.44;;;14.93;51.69
40992;BME280;29633;49.168;9.848;2023-03-01T11:11:46;97224.44;;;14.93;51.98
40992;BME280;29633;49.168;9.848;2023-03-01T11:14:18;97225.38;;;14.92;51.72
40992;BME280;29633;49.168;9.848;2023-03-01T11:16:45;97222.94;;;14.90;51.86
40992;BME280;29633;49.168;9.848;2023-03-01T11:21:39;97228.41;;;14.97;51.83
40992;BME280;29633;49.168;9.848;2023-03-01T11:24:11;97225.81;;;14.97;51.84
40992;BME280;29633;49.168;9.848;2023-03-01T11:26:39;97223.47;;;14.94;51.75
40992;BME280;29633;49.168;9.848;2023-03-01T11:29:11;97220.59;;;14.97;51.76
40992;BME280;29633;49.168;9.848;2023-03-01T11:31:38;97214.53;;;14.96;51.80
40992;BME280;29633;49.168;9.848;2023-03-01T11:34:17;97207.91;;;15.02;52.00
40992;BME280;29633;49.168;9.848;2023-03-01T11:39:34;97199.38;;;15.09;51.77
40992;BME280;29633;49.168;9.848;2023-03-01T11:44:52;97195.81;;;15.10;51.83
40992;BME280;29633;49.168;9.848;2023-03-01T11:50:25;97186.75;;;15.14;51.97
40992;BME280;29633;49.168;9.848;2023-03-01T12:11:46;97165.81;;;15.34;51.98
40992;BME280;29633;49.168;9.848;2023-03-01T12:22:28;97144.84;;;15.43;51.95
40992;BME280;29633;49.168;9.848;2023-03-01T12:27:58;97129.97;;;15.53;52.02
40992;BME280;29633;49.168;9.848;2023-03-01T12:36:06;97128.84;;;15.56;51.99
40992;BME280;29633;49.168;9.848;2023-03-01T12:38:42;97110.13;;;15.60;52.01
40992;BME280;29633;49.168;9.848;2023-03-01T12:49:40;97097.41;;;15.75;52.04
40992;BME280;29633;49.168;9.848;2023-03-01T12:52:12;97085.38;;;15.82;51.86
40992;BME280;29633;49.168;9.848;2023-03-01T12:54:40;97088.09;;;15.90;51.95
40992;BME280;29633;49.168;9.848;2023-03-01T12:59:39;97084.81;;;16.06;51.85
40992;BME280;29633;49.168;9.848;2023-03-01T13:02:21;97089.97;;;16.15;52.03
40992;BME280;29633;49.168;9.848;2023-03-01T13:04:53;97077.94;;;16.22;52.20
40992;BME280;29633;49.168;9.848;2023-03-01T13:10:15;97080.81;;;16.37;53.21
40992;BME280;29633;49.168;9.848;2023-03-01T13:15:26;97072.28;;;16.70;53.87
40992;BME280;29633;49.168;9.848;2023-03-01T13:17:53;97065.66;;;16.84;54.06
40992;BME280;29633;49.168;9.848;2023-03-01T13:20:31;97072.28;;;17.04;54.50
40992;BME280;29633;49.168;9.848;2023-03-01T13:33:48;97055.13;;;19.30;54.17
40992;BME280;29633;49.168;9.848;2023-03-01T13:44:25;97048.97;;;21.04;53.32
40992;BME280;29633;49.168;9.848;2023-03-01T13:46:53;97042.59;;;21.43;53.10
40992;BME280;29633;49.168;9.848;2023-03-01T13:49:22;97046.56;;;21.68;52.65
40992;BME280;29633;49.168;9.848;2023-03-01T13:51:49;97040.69;;;21.87;52.80
40992;BME280;29633;49.168;9.848;2023-03-01T13:54:21;97037.25;;;22.08;52.40
40992;BME280;29633;49.168;9.848;2023-03-01T13:56:50;97040.56;;;22.10;52.68
40992;BME280;29633;49.168;9.848;2023-03-01T13:59:18;97037.69;;;22.33;52.64
40992;BME280;29633;49.168;9.848;2023-03-01T14:01:44;97035.22;;;22.52;52.61
40992;BME280;29633;49.168;9.848;2023-03-01T14:06:47;97030.19;;;22.79;52.90
40992;BME280;29633;49.168;9.848;2023-03-01T14:09:17;97031.69;;;22.94;53.12
40992;BME280;29633;49.168;9.848;2023-03-01T14:12:23;97021.41;;;23.13;53.25
40992;BME280;29633;49.168;9.848;2023-03-01T14:15:02;97023.78;;;23.35;52.85
40992;BME280;29633;49.168;9.848;2023-03-01T14:18:50;97022.88;;;23.63;52.78
40992;BME280;29633;49.168;9.848;2023-03-01T14:20:43;97014.84;;;23.97;52.24
40992;BME280;29633;49.168;9.848;2023-03-01T14:23:23;97016.53;;;24.24;51.70
40992;BME280;29633;49.168;9.848;2023-03-01T14:25:58;97016.13;;;24.40;51.54
40992;BME280;29633;49.168;9.848;2023-03-01T14:28:28;97016.53;;;24.50;51.05
40992;BME280;29633;49.168;9.848;2023-03-01T14:30:56;97021.22;;;24.22;50.83
40992;BME280;29633;49.168;9.848;2023-03-01T14:36:08;97021.28;;;23.62;50.17
40992;BME280;29633;49.168;9.848;2023-03-01T14:41:22;97033.47;;;22.87;49.46
40992;BME280;29633;49.168;9.848;2023-03-01T14:43:55;97032.19;;;22.55;49.46
40992;BME280;29633;49.168;9.848;2023-03-01T14:46:34;97031.22;;;22.14;49.53
40992;BME280;29633;49.168;9.848;2023-03-01T14:51:36;97033.31;;;21.47;49.28
40992;BME280;29633;49.168;9.848;2023-03-01T14:54:02;97035.69;;;21.27;48.88
40992;BME280;29633;49.168;9.848;2023-03-01T14:56:28;97039.69;;;21.08;49.00
40992;BME280;29633;49.168;9.848;2023-03-01T14:59:08;97041.41;;;20.87;49.15
40992;BME280;29633;49.168;9.848;2023-03-01T15:01:33;97041.03;;;20.75;49.02
40992;BME280;29633;49.168;9.848;2023-03-01T15:03:59;97042.81;;;20.60;49.04
40992;BME280;29633;49.168;9.848;2023-03-01T15:06:26;97050.28;;;20.34;49.11
40992;BME280;29633;49.168;9.848;2023-03-01T15:08:53;97044.66;;;20.14;49.28
40992;BME280;29633;49.168;9.848;2023-03-01T15:11:30;97044.69;;;19.83;49.16
40992;BME280;29633;49.168;9.848;2023-03-01T15:13:57;97042.06;;;19.60;49.16
40992;BME280;29633;49.168;9.848;2023-03-01T15:16:25;97038.03;;;19.42;48.84